GCTS

Tenerife South Airport

Tenerife Island, Spain
TAF GCTS 172000Z 1721/1821 36006KT 9999 SCT035 TX21/1815Z TN14/1806Z BECMG 1809/1811 08018KT
Issued Valid From Valid To
Jan-17 @ 20:00 UTC
(3 hours ago)
Jan-17 @ 21:00 UTC
(2 hours ago)
Jan-18 @ 21:00 UTC
(in 22 hours)
Jan-17 @ 21:00 to Jan-18 @ 09:00
TAF GCTS 172000Z 1721/1821 36006KT 9999 SCT035 TX21/1815Z TN14/1806Z
Wind Visibility Clouds
360° at 6 knots 10,000+ meters
  • Scattered at 3,500' AGL
Becoming Jan-18 @ 09:00 to Jan-18 @ 21:00
BECMG 1809/1811 08018KT
Wind Visibility Clouds
80° at 18 knots 10,000+ meters
  • Scattered at 3,500' AGL
TAF GCTS 172000Z 1721/1821 36006KT 9999 SCT035 TX21/1815Z TN14/1806Z BECMG 1809/1811 08018KT
Issued Jan-17 @ 20:00 UTC
(3 hours ago)
Valid From Jan-17 @ 21:00 UTC
(2 hours ago)
Valid To Jan-18 @ 21:00 UTC
(in 22 hours)
Jan-17 @ 21:00 - Jan-18 @ 09:00
Wind Visibility
360° at 6 knots 10,000+ meters
Clouds
  • Scattered at 3,500' AGL
Becoming Jan-18 @ 09:00 - Jan-18 @ 21:00
Wind Visibility
80° at 18 knots 10,000+ meters
Clouds
  • Scattered at 3,500' AGL